KCCR/CCR METAR and TAF weather

Enter ICAO airport designator
Station Type Date Time Source
KCCR METAR 2022/08/16 18:53 UTC NOAA

KCCR 161853Z 36005KT 10SM CLR 31/12 A2979 RMK AO2 SLP075 T03110122


Station Type Date Time Source
KCCR Decoded METAR 2022/08/16 18:53 UTC NOAA

CONCORD BUCHANAN FIELD, CA, United States (KCCR) 38-00N 122-03W 11M
Aug 16, 2022 - 02:53 PM EDT / 2022.08.16 1853 UTC
Wind: from the N (360 degrees) at 6 MPH (5 KT):0
Visibility: 10 mile(s):0
Sky conditions: clear
Temperature: 88.0 F (31.1 C)
Dew Point: 54.0 F (12.2 C)
Relative Humidity: 31%
Pressure (altimeter): 29.79 in. Hg (1008 hPa)
ob: KCCR 161853Z 36005KT 10SM CLR 31/12 A2979 RMK AO2 SLP075 T03110122
cycle: 19

Station Type Date Time Source
KCCR TAF 2016/02/08 18:39 UTC NOAA

TAF KCCR 081738Z 0818/0918 07006KT P6SM SKC
FM082000 06010KT P6SM SKC
FM090000 06005KT P6SM SKC
FM090600 VRB03KT P6SM SKC

Example: see airport list